createdAt,value
2018-05-24T00:00:02.080Z,4.28
2018-05-24T00:02:29.516Z,5.12
2018-05-24T00:04:56.952Z,3.45
2018-05-24T00:07:24.342Z,3.55
2018-05-24T00:09:51.992Z,3.20
2018-05-24T00:12:19.481Z,3.55
2018-05-24T00:14:46.967Z,3.55
2018-05-24T00:17:14.575Z,3.55
2018-05-24T00:19:42.230Z,3.65
2018-05-24T00:22:09.651Z,4.28
2018-05-24T00:24:37.085Z,3.25
2018-05-24T00:27:04.531Z,4.15
2018-05-24T00:29:31.987Z,3.72
2018-05-24T00:31:59.445Z,3.83
2018-05-24T00:34:26.892Z,4.78
2018-05-24T00:36:56.119Z,4.30
2018-05-24T00:39:23.725Z,3.92
2018-05-24T00:41:51.122Z,3.87
2018-05-24T00:44:18.528Z,3.30
2018-05-24T00:46:46.100Z,4.22
2018-05-24T00:49:13.616Z,3.22
2018-05-24T00:51:41.075Z,3.00
2018-05-24T00:54:08.475Z,2.90
2018-05-24T00:56:36.769Z,3.30
2018-05-24T00:59:07.044Z,3.50
2018-05-24T01:01:34.525Z,3.00
2018-05-24T01:04:01.956Z,4.07
2018-05-24T01:06:29.396Z,2.45
2018-05-24T01:08:56.865Z,4.20
2018-05-24T01:11:24.400Z,3.00
2018-05-24T01:13:51.866Z,2.75
2018-05-24T01:16:19.348Z,3.00
2018-05-24T01:18:46.938Z,3.92
2018-05-24T01:21:15.483Z,2.55
2018-05-24T01:23:43.148Z,3.67
2018-05-24T01:26:11.606Z,3.17
2018-05-24T01:28:39.051Z,4.10
2018-05-24T01:31:06.476Z,4.10
2018-05-24T01:33:34.379Z,3.80
2018-05-24T01:36:01.819Z,3.30
2018-05-24T01:38:29.281Z,5.50
2018-05-24T01:40:56.756Z,3.50
2018-05-24T01:43:24.227Z,2.90
2018-05-24T01:45:51.932Z,3.10
2018-05-24T01:48:19.368Z,3.45
2018-05-24T01:50:46.872Z,3.12
2018-05-24T01:53:14.312Z,3.35
2018-05-24T01:55:41.774Z,3.55
2018-05-24T01:58:10.355Z,2.85
2018-05-24T02:00:38.588Z,3.80
2018-05-24T02:03:06.873Z,3.15
2018-05-24T02:05:34.274Z,2.40
2018-05-24T02:08:01.780Z,3.67
2018-05-24T02:10:29.279Z,3.40
2018-05-24T02:12:56.706Z,2.85
2018-05-24T02:15:24.109Z,2.72
2018-05-24T02:17:51.551Z,2.87
2018-05-24T02:20:20.339Z,2.75
2018-05-24T02:22:47.869Z,3.00
2018-05-24T02:25:16.392Z,3.78
2018-05-24T02:27:43.836Z,3.60
2018-05-24T02:30:11.286Z,2.50
2018-05-24T02:32:38.765Z,3.03
2018-05-24T02:35:07.224Z,2.50
2018-05-24T02:37:34.916Z,2.60
2018-05-24T02:40:02.443Z,4.22
2018-05-24T02:42:29.901Z,4.00
2018-05-24T02:44:57.739Z,3.35
2018-05-24T02:47:25.153Z,2.35
2018-05-24T02:49:52.598Z,2.83
2018-05-24T02:52:20.044Z,3.28
2018-05-24T02:54:50.855Z,2.30
2018-05-24T02:57:18.259Z,3.40
2018-05-24T02:59:45.853Z,2.65
2018-05-24T03:02:13.322Z,3.80
2018-05-24T03:04:43.075Z,2.62
2018-05-24T03:07:10.496Z,3.35
2018-05-24T03:09:37.959Z,3.37
2018-05-24T03:12:05.393Z,3.37
2018-05-24T03:14:32.843Z,3.28
2018-05-24T03:17:00.312Z,2.80
2018-05-24T03:19:27.764Z,4.15
2018-05-24T03:21:55.344Z,3.45
2018-05-24T03:24:22.820Z,3.65
2018-05-24T03:26:50.223Z,2.83
2018-05-24T03:29:18.454Z,4.10
2018-05-24T03:31:46.120Z,3.45
2018-05-24T03:34:14.214Z,3.70
2018-05-24T03:36:41.654Z,3.10
2018-05-24T03:39:09.079Z,3.83
2018-05-24T03:41:36.553Z,4.18
2018-05-24T03:44:03.996Z,4.30
2018-05-24T03:46:32.404Z,2.95
2018-05-24T03:48:59.985Z,3.00
2018-05-24T03:51:27.441Z,2.90
2018-05-24T03:53:54.889Z,2.72
2018-05-24T03:56:22.279Z,2.20
2018-05-24T03:58:53.398Z,3.08
2018-05-24T04:01:32.697Z,2.87
2018-05-24T04:04:11.850Z,3.75
2018-05-24T04:06:39.314Z,3.78
2018-05-24T04:09:06.774Z,4.60
2018-05-24T04:11:34.186Z,3.08
2018-05-24T04:14:01.597Z,2.80
2018-05-24T04:16:29.030Z,4.75
2018-05-24T04:18:56.463Z,6.25
2018-05-24T04:21:23.910Z,5.45
2018-05-24T04:23:51.339Z,5.10
2018-05-24T04:26:18.832Z,3.67
2018-05-24T04:28:46.282Z,4.05
2018-05-24T04:31:15.115Z,3.50
2018-05-24T04:33:43.388Z,3.28
2018-05-24T04:36:10.854Z,3.28
2018-05-24T04:38:38.306Z,3.80
2018-05-24T04:41:05.764Z,3.15
2018-05-24T04:43:33.228Z,3.80
2018-05-24T04:46:00.681Z,3.10
2018-05-24T04:48:30.795Z,3.35
2018-05-24T04:50:58.308Z,3.95
2018-05-24T04:53:25.819Z,3.42
2018-05-24T04:55:53.304Z,3.12
2018-05-24T04:58:20.723Z,3.47
2018-05-24T05:00:48.160Z,3.53
2018-05-24T05:03:15.582Z,3.70
2018-05-24T05:05:43.047Z,3.78
2018-05-24T05:08:10.466Z,3.62
2018-05-24T05:10:37.988Z,3.05
2018-05-24T05:13:05.441Z,2.67
2018-05-24T05:15:32.884Z,2.70
2018-05-24T05:18:00.321Z,3.62
2018-05-24T05:20:27.768Z,5.28
2018-05-24T05:22:55.649Z,4.00
2018-05-24T05:25:23.103Z,3.15
2018-05-24T05:27:50.576Z,4.60
2018-05-24T05:30:18.132Z,4.40
2018-05-24T05:32:45.623Z,5.20
2018-05-24T05:35:17.341Z,4.78
2018-05-24T05:37:44.771Z,5.35
2018-05-24T05:40:12.919Z,4.20
2018-05-24T05:42:40.357Z,3.47
2018-05-24T05:45:07.815Z,3.58
2018-05-24T05:47:35.293Z,4.40
2018-05-24T05:50:02.727Z,5.00
2018-05-24T05:52:30.176Z,4.57
2018-05-24T05:54:57.638Z,3.70
2018-05-24T05:57:25.043Z,5.37
2018-05-24T05:59:52.501Z,3.72
2018-05-24T06:02:19.989Z,5.00
2018-05-24T06:04:47.444Z,5.97
2018-05-24T06:07:14.899Z,4.75
2018-05-24T06:09:42.387Z,4.40
2018-05-24T06:12:10.375Z,5.97
2018-05-24T06:14:37.958Z,6.60
2018-05-24T06:17:05.646Z,6.68
2018-05-24T06:19:33.769Z,9.80
2018-05-24T06:22:01.220Z,8.23
2018-05-24T06:24:28.647Z,6.22
2018-05-24T06:26:56.608Z,6.00
2018-05-24T06:29:24.077Z,7.50
2018-05-24T06:31:51.546Z,6.90
2018-05-24T06:34:19.192Z,7.40
2018-05-24T06:36:46.658Z,8.82
2018-05-24T06:39:14.117Z,9.60
2018-05-24T06:41:41.555Z,6.97
2018-05-24T06:44:09.310Z,7.70
2018-05-24T06:46:36.799Z,9.25
2018-05-24T06:49:04.615Z,7.80
2018-05-24T06:51:32.065Z,6.53
2018-05-24T06:53:59.544Z,7.78
2018-05-24T06:56:27.785Z,5.30
2018-05-24T06:58:55.303Z,5.55
2018-05-24T07:01:22.740Z,5.50
2018-05-24T07:03:50.185Z,6.45
2018-05-24T07:06:17.648Z,5.72
2018-05-24T07:08:45.072Z,6.10
2018-05-24T07:11:12.635Z,3.87
2018-05-24T07:13:41.638Z,3.95
2018-05-24T07:16:11.875Z,5.35
2018-05-24T07:18:40.199Z,5.47
2018-05-24T07:21:07.608Z,3.85
2018-05-24T07:23:36.283Z,2.50
2018-05-24T07:26:03.759Z,3.20
2018-05-24T07:28:31.238Z,5.80
2018-05-24T07:30:58.771Z,3.55
2018-05-24T07:33:26.224Z,3.00
2018-05-24T07:35:53.697Z,2.40
2018-05-24T07:38:21.181Z,3.97
2018-05-24T07:40:48.645Z,3.95
2018-05-24T07:43:16.075Z,1.98
2018-05-24T07:45:43.516Z,2.30
2018-05-24T07:48:11.075Z,1.85
2018-05-24T07:50:38.875Z,2.05
2018-05-24T07:53:06.351Z,2.15
2018-05-24T07:55:33.911Z,1.55
2018-05-24T07:58:01.451Z,2.10
2018-05-24T08:00:28.852Z,2.87
2018-05-24T08:02:56.316Z,2.12
2018-05-24T08:05:23.927Z,2.40
2018-05-24T08:07:52.457Z,4.25
2018-05-24T08:10:19.862Z,2.20
2018-05-24T08:12:47.346Z,1.90
2018-05-24T08:15:15.316Z,3.08
2018-05-24T08:17:42.708Z,2.42
2018-05-24T08:20:10.115Z,2.47
2018-05-24T08:22:38.273Z,3.30
2018-05-24T08:25:05.616Z,2.10
2018-05-24T08:27:33.055Z,3.37
2018-05-24T08:30:00.578Z,3.10
2018-05-24T08:32:28.019Z,3.28
2018-05-24T08:34:55.689Z,4.82
2018-05-24T08:37:23.136Z,3.75
2018-05-24T08:39:50.640Z,3.83
2018-05-24T08:42:19.294Z,3.45
2018-05-24T08:44:46.968Z,5.28
2018-05-24T08:47:14.574Z,3.85
2018-05-24T08:49:41.971Z,2.95
2018-05-24T08:52:09.440Z,3.67
2018-05-24T08:54:39.516Z,3.08
2018-05-24T08:57:06.914Z,3.25
2018-05-24T08:59:34.351Z,4.43
2018-05-24T09:02:01.930Z,3.17
2018-05-24T09:04:31.037Z,3.90
2018-05-24T09:06:58.479Z,5.00
2018-05-24T09:09:25.879Z,3.83
2018-05-24T09:11:53.298Z,4.12
2018-05-24T09:14:20.758Z,3.75
2018-05-24T09:16:48.209Z,3.53
2018-05-24T09:19:15.634Z,3.60
2018-05-24T09:21:43.137Z,3.33
2018-05-24T09:24:10.828Z,3.20
2018-05-24T09:26:38.313Z,4.32
2018-05-24T09:29:05.791Z,4.25
2018-05-24T09:31:34.397Z,3.40
2018-05-24T09:34:01.906Z,3.25
2018-05-24T09:36:29.332Z,1.83
2018-05-24T09:38:56.746Z,3.20
2018-05-24T09:41:25.366Z,3.75
2018-05-24T09:43:52.843Z,2.80
2018-05-24T09:46:20.404Z,3.20
2018-05-24T09:48:47.808Z,3.35
2018-05-24T09:51:15.298Z,3.28
2018-05-24T09:53:42.693Z,2.72
2018-05-24T10:01:06.508Z,3.90
2018-05-24T10:03:33.951Z,4.60
2018-05-24T10:06:03.395Z,3.42
2018-05-24T10:10:57.859Z,5.50
2018-05-24T10:13:25.323Z,4.32
2018-05-24T10:15:53.707Z,5.05
2018-05-24T10:18:21.192Z,4.95
2018-05-24T10:23:15.683Z,5.15
2018-05-24T10:25:43.156Z,5.45
2018-05-24T10:28:10.581Z,3.53
2018-05-24T10:30:38.084Z,5.22
2018-05-24T10:33:05.510Z,2.90
2018-05-24T10:35:32.988Z,4.03
2018-05-24T10:38:00.561Z,3.30
2018-05-24T10:40:27.992Z,4.22
2018-05-24T10:42:55.492Z,3.75
2018-05-24T11:04:59.201Z,3.80
2018-05-24T11:09:54.602Z,3.37
2018-05-24T11:12:22.107Z,5.00
2018-05-24T11:14:51.658Z,4.03
2018-05-24T11:17:19.128Z,3.70
2018-05-24T11:19:46.643Z,4.12
2018-05-24T11:22:18.562Z,4.55
2018-05-24T11:24:46.004Z,3.62
2018-05-24T11:39:29.769Z,4.72
2018-05-24T11:42:00.366Z,5.28
2018-05-24T11:44:27.938Z,6.30
2018-05-24T11:46:55.980Z,4.78
2018-05-24T11:49:23.451Z,4.32
2018-05-24T11:51:50.938Z,5.35
2018-05-24T11:54:18.359Z,3.70
2018-05-24T11:56:45.854Z,3.97
2018-05-24T11:59:13.357Z,4.60
2018-05-24T12:01:41.941Z,3.10
2018-05-24T12:04:09.464Z,3.50
2018-05-24T12:06:36.918Z,3.40
2018-05-24T12:09:04.348Z,4.03
2018-05-24T12:11:31.805Z,3.30
2018-05-24T12:13:59.243Z,2.78
2018-05-24T12:16:26.802Z,3.00
2018-05-24T12:18:54.272Z,3.25
2018-05-24T12:21:21.842Z,4.22
2018-05-24T12:23:49.384Z,3.92
2018-05-24T12:26:16.836Z,3.53
2018-05-24T12:28:44.321Z,4.00
2018-05-24T12:31:11.781Z,3.45
2018-05-24T12:33:39.216Z,3.33
2018-05-24T12:36:06.614Z,3.58
2018-05-24T12:38:34.102Z,3.95
2018-05-24T12:41:01.721Z,4.15
2018-05-24T12:43:29.173Z,3.83
2018-05-24T12:45:56.614Z,3.70
2018-05-24T12:48:24.010Z,3.85
2018-05-24T12:50:51.493Z,4.15
2018-05-24T13:00:40.724Z,3.60
2018-05-24T13:03:08.160Z,5.05
2018-05-24T13:05:35.652Z,4.10
2018-05-24T13:08:03.749Z,4.03
2018-05-24T13:10:31.201Z,3.33
2018-05-24T13:12:58.671Z,4.10
2018-05-24T13:15:26.132Z,4.57
2018-05-24T13:17:53.583Z,4.65
2018-05-24T13:20:21.043Z,4.80
2018-05-24T13:22:48.538Z,4.20
2018-05-24T13:25:15.970Z,4.90
2018-05-24T13:27:44.355Z,3.40
2018-05-24T13:30:11.786Z,4.05
2018-05-24T13:32:39.269Z,4.32
2018-05-24T13:35:07.685Z,4.60
2018-05-24T13:37:35.115Z,4.20
2018-05-24T15:35:46.208Z,3.40
2018-05-24T15:38:14.303Z,3.30
2018-05-24T15:40:41.763Z,2.85
2018-05-24T15:43:09.200Z,3.25
2018-05-24T15:45:37.451Z,3.85
2018-05-24T15:48:06.210Z,3.42
2018-05-24T15:50:33.723Z,3.65
2018-05-24T15:53:01.215Z,3.45
2018-05-24T15:55:28.702Z,4.05
2018-05-24T15:57:56.215Z,3.05
2018-05-24T16:00:24.323Z,3.03
2018-05-24T16:02:51.882Z,3.83
2018-05-24T16:05:19.322Z,3.20
2018-05-24T16:07:46.786Z,3.25
2018-05-24T16:10:14.316Z,2.90
2018-05-24T16:12:41.728Z,3.42
2018-05-24T16:15:09.247Z,3.22
2018-05-24T16:17:36.712Z,3.00
2018-05-24T16:20:04.186Z,2.70
2018-05-24T16:22:31.739Z,2.92
2018-05-24T16:24:59.175Z,3.33
2018-05-24T16:27:26.728Z,3.58
2018-05-24T16:29:54.153Z,4.85
2018-05-24T16:32:21.957Z,3.62
2018-05-24T16:34:49.388Z,3.12
2018-05-24T16:37:19.161Z,4.15
2018-05-24T16:39:46.671Z,3.00
2018-05-24T16:42:14.075Z,3.95
2018-05-24T16:44:41.519Z,3.25
2018-05-24T16:47:09.048Z,3.55
2018-05-24T16:49:36.979Z,3.47
2018-05-24T16:52:04.637Z,2.45
2018-05-24T16:54:32.148Z,2.92
2018-05-24T16:56:59.549Z,4.15
2018-05-24T16:59:26.954Z,3.05
2018-05-24T17:01:54.754Z,3.60
2018-05-24T17:04:22.340Z,3.05
2018-05-24T17:06:49.799Z,3.28
2018-05-24T17:09:17.211Z,2.45
2018-05-24T17:11:44.681Z,3.92
2018-05-24T17:14:12.145Z,2.95
2018-05-24T17:16:39.599Z,3.22
2018-05-24T17:19:07.128Z,3.35
2018-05-24T17:21:34.605Z,2.83
2018-05-24T17:24:02.343Z,4.95
2018-05-24T17:29:08.168Z,3.47
2018-05-24T17:31:35.668Z,4.22
2018-05-24T17:34:03.276Z,4.03
2018-05-24T17:36:30.703Z,2.65
2018-05-24T17:38:58.241Z,4.50
2018-05-24T17:41:26.156Z,2.80
2018-05-24T17:43:53.985Z,2.70
2018-05-24T17:46:21.447Z,3.35
2018-05-24T17:48:48.905Z,3.92
2018-05-24T17:51:16.344Z,3.53
2018-05-24T17:53:43.818Z,3.37
2018-05-24T17:56:11.246Z,3.10
2018-05-24T17:58:38.679Z,3.90
2018-05-24T18:01:06.104Z,3.33
2018-05-24T18:03:33.520Z,4.07
2018-05-24T18:06:01.033Z,3.30
2018-05-24T18:08:28.467Z,3.75
2018-05-24T18:10:55.900Z,3.10
2018-05-24T18:13:25.535Z,4.45
2018-05-24T18:15:52.995Z,4.90
2018-05-24T18:18:21.882Z,5.70
2018-05-24T18:20:49.288Z,5.72
2018-05-24T18:23:16.755Z,6.05
2018-05-24T18:25:44.205Z,5.53
2018-05-24T18:28:11.669Z,4.87
2018-05-24T18:30:39.167Z,4.97
2018-05-24T18:33:06.729Z,5.32
2018-05-24T18:35:34.734Z,5.47
2018-05-24T18:38:02.234Z,5.60
2018-05-24T18:40:29.732Z,5.00
2018-05-24T18:42:57.359Z,4.65
2018-05-24T18:45:24.936Z,4.03
2018-05-24T18:47:52.481Z,3.05
2018-05-24T18:50:19.917Z,4.55
2018-05-24T18:52:47.371Z,5.55
2018-05-24T18:55:14.851Z,4.62
2018-05-24T18:57:43.211Z,7.60
2018-05-24T19:00:10.657Z,4.05
2018-05-24T19:02:38.145Z,5.43
2018-05-24T19:05:05.626Z,6.03
2018-05-24T19:07:33.073Z,5.15
2018-05-24T19:10:00.544Z,5.47
2018-05-24T19:12:28.933Z,4.25
2018-05-24T19:14:56.401Z,4.00
2018-05-24T19:17:23.874Z,4.60
2018-05-24T19:19:51.349Z,6.70
2018-05-24T19:22:18.820Z,5.57
2018-05-24T19:24:46.259Z,5.18
2018-05-24T19:27:13.740Z,7.43
2018-05-24T19:29:41.255Z,5.37
2018-05-24T19:32:09.336Z,4.20
2018-05-24T19:34:38.396Z,4.57
2018-05-24T19:37:05.876Z,5.18
2018-05-24T19:39:33.405Z,4.30
2018-05-24T19:42:04.657Z,5.18
2018-05-24T19:44:32.099Z,6.62
2018-05-24T19:46:59.557Z,5.35
2018-05-24T19:49:28.622Z,4.20
2018-05-24T19:51:56.225Z,5.50
2018-05-24T19:54:23.635Z,4.55
2018-05-24T19:56:51.141Z,4.72
2018-05-24T19:59:18.551Z,5.28
2018-05-24T20:01:46.049Z,3.80
2018-05-24T20:04:13.521Z,5.10
2018-05-24T20:06:41.835Z,4.12
2018-05-24T20:09:09.309Z,5.75
2018-05-24T20:11:36.802Z,4.90
2018-05-24T20:14:04.258Z,4.65
2018-05-24T20:16:31.779Z,3.62
2018-05-24T20:18:59.342Z,4.03
2018-05-24T20:21:28.124Z,4.53
2018-05-24T20:23:55.519Z,4.10
2018-05-24T20:26:26.795Z,4.75
2018-05-24T20:28:54.323Z,4.78
2018-05-24T20:31:21.723Z,3.90
2018-05-24T20:33:49.144Z,4.72
2018-05-24T20:36:17.375Z,5.75
2018-05-24T20:38:44.765Z,5.30
2018-05-24T20:41:12.279Z,3.62
2018-05-24T20:43:39.765Z,4.15
2018-05-24T20:46:07.228Z,3.40
2018-05-24T20:48:35.663Z,3.70
2018-05-24T20:51:03.188Z,4.07
2018-05-24T20:53:30.596Z,3.55
2018-05-24T20:55:58.113Z,3.30
2018-05-24T20:58:25.579Z,3.25
2018-05-24T21:00:53.099Z,3.87
2018-05-24T21:03:20.573Z,3.72
2018-05-24T21:05:48.959Z,4.85
2018-05-24T21:08:17.233Z,3.62
2018-05-24T21:10:45.037Z,4.15
2018-05-24T21:13:12.548Z,3.85
2018-05-24T21:15:40.059Z,5.57
2018-05-24T21:18:07.566Z,4.35
2018-05-24T21:20:34.976Z,3.20
2018-05-24T21:23:02.445Z,5.25
2018-05-24T21:25:31.077Z,3.65
2018-05-24T21:27:58.516Z,4.43
2018-05-24T21:30:26.010Z,3.75
2018-05-24T21:32:53.473Z,3.10
2018-05-24T21:35:20.930Z,2.90
2018-05-24T21:37:48.496Z,4.15
2018-05-24T21:40:15.936Z,5.00
2018-05-24T21:42:44.204Z,3.33
2018-05-24T21:45:11.625Z,4.25
2018-05-24T21:47:39.082Z,4.60
2018-05-24T21:50:06.529Z,3.55
2018-05-24T21:52:33.983Z,4.07
2018-05-24T21:55:01.437Z,4.62
2018-05-24T21:57:28.942Z,3.40
2018-05-24T21:59:56.387Z,4.15
2018-05-24T22:02:23.934Z,4.03
2018-05-24T22:04:51.409Z,3.55
2018-05-24T22:07:18.876Z,5.03
2018-05-24T22:09:46.352Z,3.85
2018-05-24T22:12:13.858Z,3.80
2018-05-24T22:14:41.282Z,3.97
2018-05-24T22:17:08.722Z,4.90
2018-05-24T22:19:36.135Z,4.55
2018-05-24T22:22:03.569Z,4.30
2018-05-24T22:24:31.026Z,5.15
2018-05-24T22:26:58.444Z,3.80
2018-05-24T22:29:26.054Z,3.83
2018-05-24T22:31:53.476Z,3.85
2018-05-24T22:34:20.875Z,3.10
2018-05-24T22:36:48.433Z,3.85
2018-05-24T22:39:15.899Z,4.32
2018-05-24T22:41:43.325Z,4.72
2018-05-24T22:44:10.758Z,3.45
2018-05-24T22:46:46.756Z,3.12
2018-05-24T22:49:14.998Z,3.12
2018-05-24T22:51:43.071Z,4.15
2018-05-24T22:54:10.579Z,2.58
2018-05-24T22:56:38.945Z,3.22
2018-05-24T22:59:06.339Z,3.67
2018-05-24T23:01:34.878Z,3.08
2018-05-24T23:04:03.309Z,3.20
2018-05-24T23:06:31.581Z,3.05
2018-05-24T23:08:59.077Z,3.45
2018-05-24T23:11:26.515Z,6.80
2018-05-24T23:13:53.921Z,4.18
2018-05-24T23:16:21.321Z,5.20
2018-05-24T23:18:48.763Z,3.80
2018-05-24T23:21:16.200Z,3.65
2018-05-24T23:23:43.631Z,3.58
2018-05-24T23:26:11.069Z,4.18
2018-05-24T23:28:38.486Z,4.80
2018-05-24T23:31:05.954Z,3.90
2018-05-24T23:33:34.107Z,3.40
2018-05-24T23:36:01.516Z,3.47
2018-05-24T23:38:28.960Z,4.70
2018-05-24T23:40:56.413Z,4.45
2018-05-24T23:43:25.073Z,3.83
2018-05-24T23:45:52.547Z,4.20
2018-05-24T23:48:22.481Z,4.35
2018-05-24T23:50:49.925Z,3.55
2018-05-24T23:53:17.399Z,3.60
2018-05-24T23:55:45.807Z,3.17
2018-05-24T23:58:13.259Z,3.62
